sensor_id;sensor_type;location;lat;lon;timestamp;temperature;humidity
19258;DHT22;9763;48.780;9.212;2023-09-12T00:03:03;24.70;52.30
19258;DHT22;9763;48.780;9.212;2023-09-12T00:06:28;24.70;52.50
19258;DHT22;9763;48.780;9.212;2023-09-12T00:09:53;24.70;52.40
19258;DHT22;9763;48.780;9.212;2023-09-12T00:13:18;24.60;52.50
19258;DHT22;9763;48.780;9.212;2023-09-12T00:16:42;24.60;52.50
19258;DHT22;9763;48.780;9.212;2023-09-12T00:20:09;24.60;52.50
19258;DHT22;9763;48.780;9.212;2023-09-12T00:23:35;24.60;52.70
19258;DHT22;9763;48.780;9.212;2023-09-12T00:26:59;24.50;52.60
19258;DHT22;9763;48.780;9.212;2023-09-12T00:30:24;24.50;52.60
19258;DHT22;9763;48.780;9.212;2023-09-12T00:33:48;24.50;52.70
19258;DHT22;9763;48.780;9.212;2023-09-12T00:37:14;24.50;52.90
19258;DHT22;9763;48.780;9.212;2023-09-12T00:40:38;24.40;53.00
19258;DHT22;9763;48.780;9.212;2023-09-12T00:44:03;24.40;52.90
19258;DHT22;9763;48.780;9.212;2023-09-12T00:47:29;24.40;53.00
19258;DHT22;9763;48.780;9.212;2023-09-12T00:50:55;24.30;53.10
19258;DHT22;9763;48.780;9.212;2023-09-12T00:54:24;24.30;53.30
19258;DHT22;9763;48.780;9.212;2023-09-12T00:57:49;24.20;53.30
19258;DHT22;9763;48.780;9.212;2023-09-12T01:01:17;24.20;53.30
19258;DHT22;9763;48.780;9.212;2023-09-12T01:04:41;24.20;53.40
19258;DHT22;9763;48.780;9.212;2023-09-12T01:08:06;24.10;53.50
19258;DHT22;9763;48.780;9.212;2023-09-12T01:11:32;24.10;53.50
19258;DHT22;9763;48.780;9.212;2023-09-12T01:14:58;24.10;53.70
19258;DHT22;9763;48.780;9.212;2023-09-12T01:18:24;24.00;53.60
19258;DHT22;9763;48.780;9.212;2023-09-12T01:26:27;24.00;54.80
19258;DHT22;9763;48.780;9.212;2023-09-12T01:29:57;23.90;54.30
19258;DHT22;9763;48.780;9.212;2023-09-12T01:33:25;23.90;54.00
19258;DHT22;9763;48.780;9.212;2023-09-12T01:36:49;23.90;54.00
19258;DHT22;9763;48.780;9.212;2023-09-12T01:40:13;23.80;54.10
19258;DHT22;9763;48.780;9.212;2023-09-12T01:43:38;23.70;54.20
19258;DHT22;9763;48.780;9.212;2023-09-12T01:47:05;23.70;54.40
19258;DHT22;9763;48.780;9.212;2023-09-12T01:50:30;23.70;54.80
19258;DHT22;9763;48.780;9.212;2023-09-12T01:53:57;23.70;54.60
19258;DHT22;9763;48.780;9.212;2023-09-12T01:57:22;23.70;54.80
19258;DHT22;9763;48.780;9.212;2023-09-12T02:00:46;23.60;54.70
19258;DHT22;9763;48.780;9.212;2023-09-12T02:04:11;23.50;54.70
19258;DHT22;9763;48.780;9.212;2023-09-12T02:07:38;23.50;54.90
19258;DHT22;9763;48.780;9.212;2023-09-12T02:14:28;23.40;55.10
19258;DHT22;9763;48.780;9.212;2023-09-12T02:17:52;23.40;54.90
19258;DHT22;9763;48.780;9.212;2023-09-12T02:21:17;23.40;55.00
19258;DHT22;9763;48.780;9.212;2023-09-12T02:24:42;23.40;55.10
19258;DHT22;9763;48.780;9.212;2023-09-12T02:28:05;23.30;55.00
19258;DHT22;9763;48.780;9.212;2023-09-12T02:31:29;23.30;55.20
19258;DHT22;9763;48.780;9.212;2023-09-12T02:34:53;23.30;55.20
19258;DHT22;9763;48.780;9.212;2023-09-12T02:38:20;23.30;55.30
19258;DHT22;9763;48.780;9.212;2023-09-12T02:41:44;23.30;55.40
19258;DHT22;9763;48.780;9.212;2023-09-12T02:45:08;23.20;55.40
19258;DHT22;9763;48.780;9.212;2023-09-12T02:48:33;23.20;55.50
19258;DHT22;9763;48.780;9.212;2023-09-12T02:51:57;23.20;55.50
19258;DHT22;9763;48.780;9.212;2023-09-12T02:55:22;23.10;55.60
19258;DHT22;9763;48.780;9.212;2023-09-12T02:58:47;23.10;55.70
19258;DHT22;9763;48.780;9.212;2023-09-12T03:02:11;23.10;55.60
19258;DHT22;9763;48.780;9.212;2023-09-12T03:05:35;23.00;55.50
19258;DHT22;9763;48.780;9.212;2023-09-12T03:08:59;23.00;55.60
19258;DHT22;9763;48.780;9.212;2023-09-12T03:12:27;23.00;55.60
19258;DHT22;9763;48.780;9.212;2023-09-12T03:15:52;22.90;55.70
19258;DHT22;9763;48.780;9.212;2023-09-12T03:19:16;22.90;55.80
19258;DHT22;9763;48.780;9.212;2023-09-12T03:22:40;22.90;55.90
19258;DHT22;9763;48.780;9.212;2023-09-12T03:26:05;22.80;55.90
19258;DHT22;9763;48.780;9.212;2023-09-12T03:29:33;22.80;56.00
19258;DHT22;9763;48.780;9.212;2023-09-12T03:32:56;22.80;56.10
19258;DHT22;9763;48.780;9.212;2023-09-12T03:36:20;22.80;56.10
19258;DHT22;9763;48.780;9.212;2023-09-12T03:39:44;22.70;56.10
19258;DHT22;9763;48.780;9.212;2023-09-12T03:43:09;22.70;56.30
19258;DHT22;9763;48.780;9.212;2023-09-12T03:46:35;22.70;56.40
19258;DHT22;9763;48.780;9.212;2023-09-12T03:49:59;22.60;56.50
19258;DHT22;9763;48.780;9.212;2023-09-12T03:53:24;22.60;56.40
19258;DHT22;9763;48.780;9.212;2023-09-12T03:56:48;22.60;56.50
19258;DHT22;9763;48.780;9.212;2023-09-12T04:00:13;22.50;57.10
19258;DHT22;9763;48.780;9.212;2023-09-12T04:03:43;22.50;56.60
19258;DHT22;9763;48.780;9.212;2023-09-12T04:07:10;22.50;56.90
19258;DHT22;9763;48.780;9.212;2023-09-12T04:10:34;22.40;57.40
19258;DHT22;9763;48.780;9.212;2023-09-12T04:13:57;22.40;57.00
19258;DHT22;9763;48.780;9.212;2023-09-12T04:17:21;22.40;57.20
19258;DHT22;9763;48.780;9.212;2023-09-12T04:20:46;22.30;57.10
19258;DHT22;9763;48.780;9.212;2023-09-12T04:24:09;22.30;57.30
19258;DHT22;9763;48.780;9.212;2023-09-12T04:27:34;22.30;57.20
19258;DHT22;9763;48.780;9.212;2023-09-12T04:31:02;22.30;57.40
19258;DHT22;9763;48.780;9.212;2023-09-12T04:34:26;22.30;57.60
19258;DHT22;9763;48.780;9.212;2023-09-12T04:37:51;22.20;57.30
19258;DHT22;9763;48.780;9.212;2023-09-12T04:41:15;22.20;57.50
19258;DHT22;9763;48.780;9.212;2023-09-12T04:44:40;22.20;57.50
19258;DHT22;9763;48.780;9.212;2023-09-12T04:48:05;22.20;57.70
19258;DHT22;9763;48.780;9.212;2023-09-12T04:51:29;22.20;57.60
19258;DHT22;9763;48.780;9.212;2023-09-12T04:54:55;22.20;57.60
19258;DHT22;9763;48.780;9.212;2023-09-12T04:58:19;22.20;57.80
19258;DHT22;9763;48.780;9.212;2023-09-12T05:01:43;22.10;57.70
19258;DHT22;9763;48.780;9.212;2023-09-12T05:05:08;22.10;57.80
19258;DHT22;9763;48.780;9.212;2023-09-12T05:08:31;22.10;57.90
19258;DHT22;9763;48.780;9.212;2023-09-12T05:11:56;22.10;57.90
19258;DHT22;9763;48.780;9.212;2023-09-12T05:15:20;22.20;58.20
19258;DHT22;9763;48.780;9.212;2023-09-12T05:18:44;22.20;58.10
19258;DHT22;9763;48.780;9.212;2023-09-12T05:22:07;22.20;58.20
19258;DHT22;9763;48.780;9.212;2023-09-12T05:25:31;22.20;58.30
19258;DHT22;9763;48.780;9.212;2023-09-12T05:28:56;22.30;58.40
19258;DHT22;9763;48.780;9.212;2023-09-12T05:32:20;22.30;58.50
19258;DHT22;9763;48.780;9.212;2023-09-12T05:35:44;22.50;58.60
19258;DHT22;9763;48.780;9.212;2023-09-12T05:39:08;22.40;58.70
19258;DHT22;9763;48.780;9.212;2023-09-12T05:42:31;22.50;58.70
19258;DHT22;9763;48.780;9.212;2023-09-12T05:45:57;22.50;58.70
19258;DHT22;9763;48.780;9.212;2023-09-12T05:49:21;22.70;59.00
19258;DHT22;9763;48.780;9.212;2023-09-12T05:52:44;22.70;59.00
19258;DHT22;9763;48.780;9.212;2023-09-12T05:56:09;22.80;59.10
19258;DHT22;9763;48.780;9.212;2023-09-12T05:59:35;22.80;59.30
19258;DHT22;9763;48.780;9.212;2023-09-12T06:03:01;23.00;59.60
19258;DHT22;9763;48.780;9.212;2023-09-12T06:06:25;23.20;59.60
19258;DHT22;9763;48.780;9.212;2023-09-12T06:09:49;23.40;59.40
19258;DHT22;9763;48.780;9.212;2023-09-12T06:13:13;23.50;59.40
19258;DHT22;9763;48.780;9.212;2023-09-12T06:16:37;23.60;59.40
19258;DHT22;9763;48.780;9.212;2023-09-12T06:20:01;23.80;59.60
19258;DHT22;9763;48.780;9.212;2023-09-12T06:23:28;23.90;59.60
19258;DHT22;9763;48.780;9.212;2023-09-12T06:26:52;24.10;59.60
19258;DHT22;9763;48.780;9.212;2023-09-12T06:30:16;24.20;59.50
19258;DHT22;9763;48.780;9.212;2023-09-12T06:33:40;24.30;60.10
19258;DHT22;9763;48.780;9.212;2023-09-12T06:37:05;24.50;60.80
19258;DHT22;9763;48.780;9.212;2023-09-12T06:40:30;24.80;60.80
19258;DHT22;9763;48.780;9.212;2023-09-12T06:43:54;25.10;60.00
19258;DHT22;9763;48.780;9.212;2023-09-12T06:47:18;25.30;59.60
19258;DHT22;9763;48.780;9.212;2023-09-12T06:50:43;25.50;59.30
19258;DHT22;9763;48.780;9.212;2023-09-12T06:54:14;25.50;59.00
19258;DHT22;9763;48.780;9.212;2023-09-12T06:57:37;25.60;58.70
19258;DHT22;9763;48.780;9.212;2023-09-12T07:01:02;25.70;58.50
19258;DHT22;9763;48.780;9.212;2023-09-12T07:04:26;25.80;58.50
19258;DHT22;9763;48.780;9.212;2023-09-12T07:07:49;25.90;58.50
19258;DHT22;9763;48.780;9.212;2023-09-12T07:11:15;26.10;58.70
19258;DHT22;9763;48.780;9.212;2023-09-12T07:14:38;26.30;59.10
19258;DHT22;9763;48.780;9.212;2023-09-12T07:18:02;26.50;59.70
19258;DHT22;9763;48.780;9.212;2023-09-12T07:21:27;26.80;59.40
19258;DHT22;9763;48.780;9.212;2023-09-12T07:24:51;27.20;59.90
19258;DHT22;9763;48.780;9.212;2023-09-12T07:28:16;27.60;59.30
19258;DHT22;9763;48.780;9.212;2023-09-12T07:31:40;28.00;58.80
19258;DHT22;9763;48.780;9.212;2023-09-12T07:35:04;28.40;59.60
19258;DHT22;9763;48.780;9.212;2023-09-12T07:38:28;28.90;58.90
19258;DHT22;9763;48.780;9.212;2023-09-12T07:41:52;29.20;58.20
19258;DHT22;9763;48.780;9.212;2023-09-12T07:45:17;29.50;57.60
19258;DHT22;9763;48.780;9.212;2023-09-12T07:48:43;29.80;56.30
19258;DHT22;9763;48.780;9.212;2023-09-12T07:52:06;29.80;55.20
19258;DHT22;9763;48.780;9.212;2023-09-12T07:55:30;29.80;55.80
19258;DHT22;9763;48.780;9.212;2023-09-12T07:58:58;30.10;58.00
19258;DHT22;9763;48.780;9.212;2023-09-12T08:02:23;30.60;58.90
19258;DHT22;9763;48.780;9.212;2023-09-12T08:05:54;31.20;57.50
19258;DHT22;9763;48.780;9.212;2023-09-12T08:09:18;31.60;55.70
19258;DHT22;9763;48.780;9.212;2023-09-12T08:12:41;31.90;55.30
19258;DHT22;9763;48.780;9.212;2023-09-12T08:16:08;32.10;55.10
19258;DHT22;9763;48.780;9.212;2023-09-12T08:19:33;32.40;54.20
19258;DHT22;9763;48.780;9.212;2023-09-12T08:22:56;32.50;52.90
19258;DHT22;9763;48.780;9.212;2023-09-12T08:26:20;32.50;52.40
19258;DHT22;9763;48.780;9.212;2023-09-12T08:29:43;32.50;52.00
19258;DHT22;9763;48.780;9.212;2023-09-12T08:33:09;32.50;51.60
19258;DHT22;9763;48.780;9.212;2023-09-12T08:36:34;32.60;52.10
19258;DHT22;9763;48.780;9.212;2023-09-12T08:39:58;32.60;51.30
19258;DHT22;9763;48.780;9.212;2023-09-12T08:43:23;32.60;51.20
19258;DHT22;9763;48.780;9.212;2023-09-12T08:46:47;32.50;50.20
19258;DHT22;9763;48.780;9.212;2023-09-12T08:50:14;32.40;51.50
19258;DHT22;9763;48.780;9.212;2023-09-12T08:53:40;32.70;53.40
19258;DHT22;9763;48.780;9.212;2023-09-12T08:57:05;33.20;54.50
19258;DHT22;9763;48.780;9.212;2023-09-12T09:00:31;33.90;54.80
19258;DHT22;9763;48.780;9.212;2023-09-12T09:03:56;34.70;54.60
19258;DHT22;9763;48.780;9.212;2023-09-12T09:07:21;35.40;53.60
19258;DHT22;9763;48.780;9.212;2023-09-12T09:10:56;36.20;52.50
19258;DHT22;9763;48.780;9.212;2023-09-12T09:14:20;36.90;50.60
19258;DHT22;9763;48.780;9.212;2023-09-12T09:17:43;37.40;50.60
19258;DHT22;9763;48.780;9.212;2023-09-12T09:21:17;37.90;49.70
19258;DHT22;9763;48.780;9.212;2023-09-12T09:24:42;38.50;47.80
19258;DHT22;9763;48.780;9.212;2023-09-12T09:28:16;38.90;47.80
19258;DHT22;9763;48.780;9.212;2023-09-12T09:31:42;39.30;46.20
19258;DHT22;9763;48.780;9.212;2023-09-12T09:35:07;39.70;46.20
19258;DHT22;9763;48.780;9.212;2023-09-12T09:38:34;39.90;45.40
19258;DHT22;9763;48.780;9.212;2023-09-12T09:41:58;40.30;44.60
19258;DHT22;9763;48.780;9.212;2023-09-12T09:45:23;40.50;43.80
19258;DHT22;9763;48.780;9.212;2023-09-12T09:48:49;40.60;43.00
19258;DHT22;9763;48.780;9.212;2023-09-12T09:52:13;40.80;42.40
19258;DHT22;9763;48.780;9.212;2023-09-12T09:55:37;40.90;42.20
19258;DHT22;9763;48.780;9.212;2023-09-12T09:59:00;41.10;41.70
19258;DHT22;9763;48.780;9.212;2023-09-12T10:02:26;41.20;41.10
19258;DHT22;9763;48.780;9.212;2023-09-12T10:05:53;41.30;40.60
19258;DHT22;9763;48.780;9.212;2023-09-12T10:09:23;41.40;40.10
19258;DHT22;9763;48.780;9.212;2023-09-12T10:12:51;41.50;39.60
19258;DHT22;9763;48.780;9.212;2023-09-12T10:16:22;41.70;39.50
19258;DHT22;9763;48.780;9.212;2023-09-12T10:19:54;41.80;38.90
19258;DHT22;9763;48.780;9.212;2023-09-12T10:23:23;41.80;38.30
19258;DHT22;9763;48.780;9.212;2023-09-12T10:26:54;41.90;38.60
19258;DHT22;9763;48.780;9.212;2023-09-12T10:30:19;42.00;38.50
19258;DHT22;9763;48.780;9.212;2023-09-12T10:33:46;42.10;38.30
19258;DHT22;9763;48.780;9.212;2023-09-12T10:37:13;42.20;37.90
19258;DHT22;9763;48.780;9.212;2023-09-12T10:40:39;42.30;37.40
19258;DHT22;9763;48.780;9.212;2023-09-12T10:44:08;42.40;37.20
19258;DHT22;9763;48.780;9.212;2023-09-12T10:47:35;42.60;36.80
19258;DHT22;9763;48.780;9.212;2023-09-12T10:51:01;42.50;36.10
19258;DHT22;9763;48.780;9.212;2023-09-12T10:54:36;42.60;36.80
19258;DHT22;9763;48.780;9.212;2023-09-12T10:58:01;42.60;35.40
19258;DHT22;9763;48.780;9.212;2023-09-12T11:01:26;42.60;35.80
19258;DHT22;9763;48.780;9.212;2023-09-12T11:04:51;42.60;35.40
19258;DHT22;9763;48.780;9.212;2023-09-12T11:08:14;42.70;35.00
19258;DHT22;9763;48.780;9.212;2023-09-12T11:11:40;42.80;34.80
19258;DHT22;9763;48.780;9.212;2023-09-12T11:15:04;42.90;35.30
19258;DHT22;9763;48.780;9.212;2023-09-12T11:18:28;42.80;34.50
19258;DHT22;9763;48.780;9.212;2023-09-12T11:21:53;42.90;34.30
19258;DHT22;9763;48.780;9.212;2023-09-12T11:25:19;43.00;34.10
19258;DHT22;9763;48.780;9.212;2023-09-12T11:28:47;43.00;34.00
19258;DHT22;9763;48.780;9.212;2023-09-12T11:32:26;43.20;33.90
19258;DHT22;9763;48.780;9.212;2023-09-12T11:35:55;43.30;33.00
19258;DHT22;9763;48.780;9.212;2023-09-12T11:39:23;43.30;33.40
19258;DHT22;9763;48.780;9.212;2023-09-12T11:42:48;43.40;33.10
19258;DHT22;9763;48.780;9.212;2023-09-12T11:46:14;43.50;33.00
19258;DHT22;9763;48.780;9.212;2023-09-12T11:49:40;43.50;32.40
19258;DHT22;9763;48.780;9.212;2023-09-12T11:53:06;43.50;32.20
19258;DHT22;9763;48.780;9.212;2023-09-12T11:56:33;43.40;32.00
19258;DHT22;9763;48.780;9.212;2023-09-12T11:59:57;43.20;31.60
19258;DHT22;9763;48.780;9.212;2023-09-12T12:03:23;43.10;31.50
19258;DHT22;9763;48.780;9.212;2023-09-12T12:06:50;42.90;31.40
19258;DHT22;9763;48.780;9.212;2023-09-12T12:10:15;42.70;31.00
19258;DHT22;9763;48.780;9.212;2023-09-12T12:13:39;42.40;30.60
19258;DHT22;9763;48.780;9.212;2023-09-12T12:17:09;42.10;30.70
19258;DHT22;9763;48.780;9.212;2023-09-12T12:20:35;41.80;31.00
19258;DHT22;9763;48.780;9.212;2023-09-12T12:23:59;41.60;31.40
19258;DHT22;9763;48.780;9.212;2023-09-12T12:27:23;41.40;31.70
19258;DHT22;9763;48.780;9.212;2023-09-12T12:30:51;41.10;31.50
19258;DHT22;9763;48.780;9.212;2023-09-12T12:34:21;41.00;31.50
19258;DHT22;9763;48.780;9.212;2023-09-12T12:38:06;40.90;31.50
19258;DHT22;9763;48.780;9.212;2023-09-12T12:41:30;40.80;31.80
19258;DHT22;9763;48.780;9.212;2023-09-12T12:45:14;40.60;31.80
19258;DHT22;9763;48.780;9.212;2023-09-12T12:48:43;40.50;31.60
19258;DHT22;9763;48.780;9.212;2023-09-12T12:52:09;40.40;31.50
19258;DHT22;9763;48.780;9.212;2023-09-12T12:55:37;40.30;31.60
19258;DHT22;9763;48.780;9.212;2023-09-12T12:59:03;40.20;31.50
19258;DHT22;9763;48.780;9.212;2023-09-12T13:02:31;40.00;31.50
19258;DHT22;9763;48.780;9.212;2023-09-12T13:05:54;39.90;31.50
19258;DHT22;9763;48.780;9.212;2023-09-12T13:09:18;39.80;31.50
19258;DHT22;9763;48.780;9.212;2023-09-12T13:12:43;39.70;31.50
19258;DHT22;9763;48.780;9.212;2023-09-12T13:16:09;39.60;31.40
19258;DHT22;9763;48.780;9.212;2023-09-12T13:19:34;39.50;31.40
19258;DHT22;9763;48.780;9.212;2023-09-12T13:22:57;39.40;31.30
19258;DHT22;9763;48.780;9.212;2023-09-12T13:26:21;39.20;31.30
19258;DHT22;9763;48.780;9.212;2023-09-12T13:29:46;39.10;31.50
19258;DHT22;9763;48.780;9.212;2023-09-12T13:33:10;39.00;31.50
19258;DHT22;9763;48.780;9.212;2023-09-12T13:36:34;39.00;31.60
19258;DHT22;9763;48.780;9.212;2023-09-12T13:39:57;38.90;31.40
19258;DHT22;9763;48.780;9.212;2023-09-12T13:43:21;38.80;31.20
19258;DHT22;9763;48.780;9.212;2023-09-12T13:46:46;38.70;31.00
19258;DHT22;9763;48.780;9.212;2023-09-12T13:50:10;38.60;31.00
19258;DHT22;9763;48.780;9.212;2023-09-12T13:53:33;38.30;30.90
19258;DHT22;9763;48.780;9.212;2023-09-12T13:56:57;38.10;31.00
19258;DHT22;9763;48.780;9.212;2023-09-12T14:00:21;37.90;31.00
19258;DHT22;9763;48.780;9.212;2023-09-12T14:03:58;37.80;31.20
19258;DHT22;9763;48.780;9.212;2023-09-12T14:07:22;37.60;31.20
19258;DHT22;9763;48.780;9.212;2023-09-12T14:10:47;37.50;31.40
19258;DHT22;9763;48.780;9.212;2023-09-12T14:14:11;37.30;31.60
19258;DHT22;9763;48.780;9.212;2023-09-12T14:17:38;37.20;31.70
19258;DHT22;9763;48.780;9.212;2023-09-12T14:21:12;37.10;31.90
19258;DHT22;9763;48.780;9.212;2023-09-12T14:24:36;37.00;32.10
19258;DHT22;9763;48.780;9.212;2023-09-12T14:28:00;36.90;32.10
19258;DHT22;9763;48.780;9.212;2023-09-12T14:31:27;36.70;32.10
19258;DHT22;9763;48.780;9.212;2023-09-12T14:34:51;36.50;32.10
19258;DHT22;9763;48.780;9.212;2023-09-12T14:38:16;36.40;32.30
19258;DHT22;9763;48.780;9.212;2023-09-12T14:41:40;36.20;32.60
19258;DHT22;9763;48.780;9.212;2023-09-12T14:45:04;36.00;32.80
19258;DHT22;9763;48.780;9.212;2023-09-12T14:48:29;35.90;33.20
19258;DHT22;9763;48.780;9.212;2023-09-12T14:51:53;35.70;33.40
19258;DHT22;9763;48.780;9.212;2023-09-12T14:55:18;35.60;33.50
19258;DHT22;9763;48.780;9.212;2023-09-12T14:58:42;35.50;33.80
19258;DHT22;9763;48.780;9.212;2023-09-12T15:02:05;35.40;34.00
19258;DHT22;9763;48.780;9.212;2023-09-12T15:05:29;35.30;34.30
19258;DHT22;9763;48.780;9.212;2023-09-12T15:08:53;35.20;34.50
19258;DHT22;9763;48.780;9.212;2023-09-12T15:12:18;35.10;34.80
19258;DHT22;9763;48.780;9.212;2023-09-12T15:15:41;35.00;35.00
19258;DHT22;9763;48.780;9.212;2023-09-12T15:19:05;35.00;35.30
19258;DHT22;9763;48.780;9.212;2023-09-12T15:22:29;34.90;35.30
19258;DHT22;9763;48.780;9.212;2023-09-12T15:25:53;34.90;35.50
19258;DHT22;9763;48.780;9.212;2023-09-12T15:29:18;34.80;35.60
19258;DHT22;9763;48.780;9.212;2023-09-12T15:32:42;34.80;35.90
19258;DHT22;9763;48.780;9.212;2023-09-12T15:36:05;34.80;35.90
19258;DHT22;9763;48.780;9.212;2023-09-12T15:39:29;34.70;35.80
19258;DHT22;9763;48.780;9.212;2023-09-12T15:43:11;34.70;35.90
19258;DHT22;9763;48.780;9.212;2023-09-12T15:47:07;34.60;36.00
19258;DHT22;9763;48.780;9.212;2023-09-12T15:51:00;34.50;36.20
19258;DHT22;9763;48.780;9.212;2023-09-12T15:54:46;34.40;36.20
19258;DHT22;9763;48.780;9.212;2023-09-12T15:58:28;34.20;36.50
19258;DHT22;9763;48.780;9.212;2023-09-12T16:02:12;34.10;36.80
19258;DHT22;9763;48.780;9.212;2023-09-12T16:05:54;33.90;37.20
19258;DHT22;9763;48.780;9.212;2023-09-12T16:09:37;33.70;37.40
19258;DHT22;9763;48.780;9.212;2023-09-12T16:13:19;33.60;37.80
19258;DHT22;9763;48.780;9.212;2023-09-12T16:17:01;33.40;38.00
19258;DHT22;9763;48.780;9.212;2023-09-12T16:20:44;33.30;38.30
19258;DHT22;9763;48.780;9.212;2023-09-12T16:24:27;33.20;38.70
19258;DHT22;9763;48.780;9.212;2023-09-12T16:28:10;33.10;38.90
19258;DHT22;9763;48.780;9.212;2023-09-12T16:31:52;33.00;39.10
19258;DHT22;9763;48.780;9.212;2023-09-12T16:35:34;32.90;39.30
19258;DHT22;9763;48.780;9.212;2023-09-12T16:39:18;32.90;39.20
19258;DHT22;9763;48.780;9.212;2023-09-12T16:43:00;32.80;39.50
19258;DHT22;9763;48.780;9.212;2023-09-12T16:46:42;32.80;39.40
19258;DHT22;9763;48.780;9.212;2023-09-12T16:50:25;32.80;39.70
19258;DHT22;9763;48.780;9.212;2023-09-12T16:54:08;32.80;40.40
19258;DHT22;9763;48.780;9.212;2023-09-12T16:57:51;32.80;39.80
19258;DHT22;9763;48.780;9.212;2023-09-12T17:01:33;32.70;40.00
19258;DHT22;9763;48.780;9.212;2023-09-12T17:05:15;32.70;40.10
19258;DHT22;9763;48.780;9.212;2023-09-12T17:08:57;32.70;39.90
19258;DHT22;9763;48.780;9.212;2023-09-12T17:12:43;32.60;39.80
19258;DHT22;9763;48.780;9.212;2023-09-12T17:16:26;32.50;39.80
19258;DHT22;9763;48.780;9.212;2023-09-12T17:20:09;32.40;39.90
19258;DHT22;9763;48.780;9.212;2023-09-12T17:23:52;32.20;39.80
19258;DHT22;9763;48.780;9.212;2023-09-12T17:27:34;32.10;39.90
19258;DHT22;9763;48.780;9.212;2023-09-12T17:31:18;31.90;39.90
19258;DHT22;9763;48.780;9.212;2023-09-12T17:35:02;31.70;39.90
19258;DHT22;9763;48.780;9.212;2023-09-12T17:38:44;31.50;40.00
19258;DHT22;9763;48.780;9.212;2023-09-12T17:42:27;31.30;40.00
19258;DHT22;9763;48.780;9.212;2023-09-12T17:46:11;31.20;40.10
19258;DHT22;9763;48.780;9.212;2023-09-12T17:49:53;31.00;40.10
19258;DHT22;9763;48.780;9.212;2023-09-12T17:53:38;30.90;40.10
19258;DHT22;9763;48.780;9.212;2023-09-12T17:57:20;30.70;40.20
19258;DHT22;9763;48.780;9.212;2023-09-12T18:01:03;30.60;40.20
19258;DHT22;9763;48.780;9.212;2023-09-12T18:04:45;30.50;40.30
19258;DHT22;9763;48.780;9.212;2023-09-12T18:08:27;30.40;40.30
19258;DHT22;9763;48.780;9.212;2023-09-12T18:12:11;30.30;40.40
19258;DHT22;9763;48.780;9.212;2023-09-12T18:15:53;30.20;40.50
19258;DHT22;9763;48.780;9.212;2023-09-12T18:19:35;30.20;40.50
19258;DHT22;9763;48.780;9.212;2023-09-12T18:23:17;30.10;40.60
19258;DHT22;9763;48.780;9.212;2023-09-12T18:27:00;30.00;40.70
19258;DHT22;9763;48.780;9.212;2023-09-12T18:30:44;30.00;41.50
19258;DHT22;9763;48.780;9.212;2023-09-12T18:34:26;29.90;40.90
19258;DHT22;9763;48.780;9.212;2023-09-12T18:38:09;29.80;40.90
19258;DHT22;9763;48.780;9.212;2023-09-12T18:41:51;29.70;41.10
19258;DHT22;9763;48.780;9.212;2023-09-12T18:45:33;29.70;41.20
19258;DHT22;9763;48.780;9.212;2023-09-12T18:49:18;29.60;41.20
19258;DHT22;9763;48.780;9.212;2023-09-12T18:52:59;29.60;41.50
19258;DHT22;9763;48.780;9.212;2023-09-12T18:56:42;29.50;41.50
19258;DHT22;9763;48.780;9.212;2023-09-12T19:00:24;29.40;41.60
19258;DHT22;9763;48.780;9.212;2023-09-12T19:04:23;29.30;41.80
19258;DHT22;9763;48.780;9.212;2023-09-12T19:08:06;29.20;42.60
19258;DHT22;9763;48.780;9.212;2023-09-12T19:11:51;29.00;42.00
19258;DHT22;9763;48.780;9.212;2023-09-12T19:15:34;28.90;42.30
19258;DHT22;9763;48.780;9.212;2023-09-12T19:19:18;28.80;42.40
19258;DHT22;9763;48.780;9.212;2023-09-12T19:23:02;28.70;42.70
19258;DHT22;9763;48.780;9.212;2023-09-12T19:26:44;28.70;43.00
19258;DHT22;9763;48.780;9.212;2023-09-12T19:30:28;28.60;43.10
19258;DHT22;9763;48.780;9.212;2023-09-12T19:34:14;28.50;43.10
19258;DHT22;9763;48.780;9.212;2023-09-12T19:37:57;28.50;43.30
19258;DHT22;9763;48.780;9.212;2023-09-12T19:41:43;28.40;43.50
19258;DHT22;9763;48.780;9.212;2023-09-12T19:45:25;28.40;43.60
19258;DHT22;9763;48.780;9.212;2023-09-12T19:49:07;28.40;43.70
19258;DHT22;9763;48.780;9.212;2023-09-12T19:52:49;28.30;43.70
19258;DHT22;9763;48.780;9.212;2023-09-12T19:56:32;28.30;43.70
19258;DHT22;9763;48.780;9.212;2023-09-12T20:00:15;28.40;43.80
19258;DHT22;9763;48.780;9.212;2023-09-12T20:03:58;28.40;43.90
19258;DHT22;9763;48.780;9.212;2023-09-12T20:07:41;28.40;44.20
19258;DHT22;9763;48.780;9.212;2023-09-12T20:11:23;28.40;43.80
19258;DHT22;9763;48.780;9.212;2023-09-12T20:15:06;28.40;43.80
19258;DHT22;9763;48.780;9.212;2023-09-12T20:18:50;28.40;43.80
19258;DHT22;9763;48.780;9.212;2023-09-12T20:22:32;28.40;44.00
19258;DHT22;9763;48.780;9.212;2023-09-12T20:26:14;28.40;44.00
19258;DHT22;9763;48.780;9.212;2023-09-12T20:29:56;28.30;44.10
19258;DHT22;9763;48.780;9.212;2023-09-12T20:33:39;28.30;44.30
19258;DHT22;9763;48.780;9.212;2023-09-12T20:37:23;28.20;44.30
19258;DHT22;9763;48.780;9.212;2023-09-12T20:41:05;28.20;44.40
19258;DHT22;9763;48.780;9.212;2023-09-12T20:44:47;28.10;44.30
19258;DHT22;9763;48.780;9.212;2023-09-12T20:48:31;28.10;44.60
19258;DHT22;9763;48.780;9.212;2023-09-12T20:52:19;28.00;44.60
19258;DHT22;9763;48.780;9.212;2023-09-12T20:56:02;27.90;44.70
19258;DHT22;9763;48.780;9.212;2023-09-12T20:59:44;27.80;44.80
19258;DHT22;9763;48.780;9.212;2023-09-12T21:03:27;27.70;44.70
19258;DHT22;9763;48.780;9.212;2023-09-12T21:07:09;27.60;45.00
19258;DHT22;9763;48.780;9.212;2023-09-12T21:10:51;27.50;45.20
19258;DHT22;9763;48.780;9.212;2023-09-12T21:14:35;27.40;45.30
19258;DHT22;9763;48.780;9.212;2023-09-12T21:18:17;27.30;45.40
19258;DHT22;9763;48.780;9.212;2023-09-12T21:21:59;27.20;45.40
19258;DHT22;9763;48.780;9.212;2023-09-12T21:25:42;27.20;45.40
19258;DHT22;9763;48.780;9.212;2023-09-12T21:29:24;27.10;45.40
19258;DHT22;9763;48.780;9.212;2023-09-12T21:33:08;27.10;45.50
19258;DHT22;9763;48.780;9.212;2023-09-12T21:36:50;27.10;45.60
19258;DHT22;9763;48.780;9.212;2023-09-12T21:40:32;27.10;45.60
19258;DHT22;9763;48.780;9.212;2023-09-12T21:44:14;27.10;45.70
19258;DHT22;9763;48.780;9.212;2023-09-12T21:47:56;27.10;45.70
19258;DHT22;9763;48.780;9.212;2023-09-12T21:51:39;27.00;45.60
19258;DHT22;9763;48.780;9.212;2023-09-12T21:55:21;27.00;45.70
19258;DHT22;9763;48.780;9.212;2023-09-12T21:59:04;27.00;45.70
19258;DHT22;9763;48.780;9.212;2023-09-12T22:02:46;27.00;45.70
19258;DHT22;9763;48.780;9.212;2023-09-12T22:06:27;27.00;45.60
19258;DHT22;9763;48.780;9.212;2023-09-12T22:10:12;27.00;45.60
19258;DHT22;9763;48.780;9.212;2023-09-12T22:13:54;27.00;45.70
19258;DHT22;9763;48.780;9.212;2023-09-12T22:17:36;27.00;45.70
19258;DHT22;9763;48.780;9.212;2023-09-12T22:21:18;27.00;45.90
19258;DHT22;9763;48.780;9.212;2023-09-12T22:25:01;27.00;45.90
19258;DHT22;9763;48.780;9.212;2023-09-12T22:28:44;26.90;46.00
19258;DHT22;9763;48.780;9.212;2023-09-12T22:32:26;26.90;46.00
19258;DHT22;9763;48.780;9.212;2023-09-12T22:36:09;26.90;46.10
19258;DHT22;9763;48.780;9.212;2023-09-12T22:39:59;26.90;46.10